KDEN

Denver International Airport

Denver, Colorado, USA
METAR KDEN 180753Z 30005KT 9SM CLR M03/M07 A2995 RMK AO2 SLP151 T10331072 $
Observed Flight Rules
Dec-18 @ 07:53 UTC (an hour ago) Visual Flight Rules
Wind Visibility Clouds
300° at 5 knots 9 miles
  • Clear skies
Temperatures Readings
Current -3°C / 27°F
Dewpoint -7°C / 19°F
Humidity 74%
Altimeter 29.95" Hg
Pressure 1015.1 hPa
Elevation 1640
METAR KDEN 180753Z 30005KT 9SM CLR M03/M07 A2995 RMK AO2 SLP151 T10331072 $
Observed Flight Rules
Dec-18 @ 07:53 UTC
(an hour ago)
VFR
Wind Visibility
300° at 5 knots 9 miles
Clouds
  • Clear skies
Temperature Dewpoint
-3°C / 27°F -7°C / 19°F
Humidity Altimeter Pressure
74% 29.95" Hg 1015.1 hPa